Time;durP1;ratioP1;P1;durP2;ratioP2;P2;SDS_P1;SDS_P2;PMS_P1;PMS_P2;Temp;Humidity;BMP_temperature;BMP_pressure;BME280_temperature;BME280_humidity;BME280_pressure;Samples;Min_cycle;Max_cycle;Signal;HPM_P1;HPM_P2
2023/09/15 00:00:24;;;;;;;0.00;0.00;;;;;;;;;;5016128;28;20024;-85
2023/09/15 00:02:52;;;;;;;0.00;0.00;;;;;;;;;;5017949;28;20021;-85
2023/09/15 00:05:18;;;;;;;0.00;0.00;;;;;;;;;;5033628;28;20029;-84
2023/09/15 00:07:44;;;;;;;0.00;0.00;;;;;;;;;;5018530;28;20033;-84
2023/09/15 00:10:11;;;;;;;0.00;0.00;;;;;;;;;;5034896;28;20103;-84
2023/09/15 00:12:38;;;;;;;0.00;0.00;;;;;;;;;;5033923;28;20025;-85
2023/09/15 00:15:10;;;;;;;0.00;0.00;;;;;;;;;;4983584;28;20124;-85
2023/09/15 00:17:40;;;;;;;0.00;0.00;;;;;;;;;;5001361;28;20559;-86
2023/09/15 00:20:25;;;;;;;0.00;0.00;;;;;;;;;;5033664;28;20033;-85
2023/09/15 00:22:51;;;;;;;0.00;0.00;;;;;;;;;;5018348;28;20021;-85
2023/09/15 00:25:26;;;;;;;0.00;0.00;;;;;;;;;;5000293;28;20401;-84
2023/09/15 00:27:55;;;;;;;0.00;0.00;;;;;;;;;;5035400;28;20030;-85
2023/09/15 00:30:24;;;;;;;0.00;0.00;;;;;;;;;;5016269;28;20425;-85
2023/09/15 00:32:50;;;;;;;0.00;0.00;;;;;;;;;;5016846;28;20076;-84
2023/09/15 00:35:16;;;;;;;0.00;0.00;;;;;;;;;;5033267;28;20402;-84
2023/09/15 00:37:43;;;;;;;0.00;0.00;;;;;;;;;;5015758;28;20033;-84
2023/09/15 00:40:10;;;;;;;0.00;0.00;;;;;;;;;;5015896;28;20018;-85
2023/09/15 00:42:36;;;;;;;0.00;0.00;;;;;;;;;;5015978;28;20108;-86
2023/09/15 00:45:05;;;;;;;0.00;0.00;;;;;;;;;;5016339;28;20037;-85
2023/09/15 00:47:32;;;;;;;0.00;0.00;;;;;;;;;;5000627;28;20037;-85
2023/09/15 00:49:58;;;;;;;0.00;0.00;;;;;;;;;;5015745;28;20439;-85
2023/09/15 00:52:23;;;;;;;0.00;0.00;;;;;;;;;;5015975;28;20091;-85
2023/09/15 00:54:49;;;;;;;0.00;0.00;;;;;;;;;;5015901;28;20112;-84
2023/09/15 00:57:14;;;;;;;0.00;0.00;;;;;;;;;;5015904;28;20080;-84
2023/09/15 00:59:40;;;;;;;0.00;0.00;;;;;;;;;;4999507;28;20048;-85
2023/09/15 01:02:06;;;;;;;0.00;0.00;;;;;;;;;;5018236;28;20056;-84
2023/09/15 01:04:33;;;;;;;0.00;0.00;;;;;;;;;;5003567;28;20048;-85
2023/09/15 01:07:01;;;;;;;0.00;0.00;;;;;;;;;;5036893;28;20359;-85
2023/09/15 01:09:27;;;;;;;0.00;0.00;;;;;;;;;;5019623;28;20022;-85
2023/09/15 01:11:52;;;;;;;0.00;0.00;;;;;;;;;;5036665;28;20028;-85
2023/09/15 01:14:18;;;;;;;0.00;0.00;;;;;;;;;;5019238;28;20443;-85
2023/09/15 01:16:49;;;;;;;0.00;0.00;;;;;;;;;;5002590;28;20026;-84
2023/09/15 01:19:39;;;;;;;0.00;0.00;;;;;;;;;;5002581;28;20424;-84
2023/09/15 01:22:23;;;;;;;0.00;0.00;;;;;;;;;;5018463;28;20398;-84
2023/09/15 01:25:01;;;;;;;0.00;0.00;;;;;;;;;;5019375;28;20029;-84
2023/09/15 01:27:57;;;;;;;0.00;0.00;;;;;;;;;;5036521;28;20022;-85
2023/09/15 01:30:23;;;;;;;0.00;0.00;;;;;;;;;;5018671;28;20029;-85
2023/09/15 01:32:49;;;;;;;0.00;0.00;;;;;;;;;;5002253;28;20459;-84
2023/09/15 01:35:15;;;;;;;0.00;0.00;;;;;;;;;;5002379;28;20041;-84
2023/09/15 01:37:40;;;;;;;0.00;0.00;;;;;;;;;;5002481;28;20029;-83
2023/09/15 01:40:07;;;;;;;0.00;0.00;;;;;;;;;;5036130;28;20112;-84
2023/09/15 01:42:32;;;;;;;0.00;0.00;;;;;;;;;;5036019;28;20048;-84
2023/09/15 01:44:58;;;;;;;0.00;0.00;;;;;;;;;;5019075;28;20443;-85
2023/09/15 01:47:23;;;;;;;0.00;0.00;;;;;;;;;;5018291;28;20045;-84
2023/09/15 01:49:50;;;;;;;0.00;0.00;;;;;;;;;;5018256;28;20037;-85
2023/09/15 01:52:15;;;;;;;0.08;0.00;;;;;;;;;;5002351;28;20037;-85
2023/09/15 01:54:41;;;;;;;0.00;0.00;;;;;;;;;;5035771;28;20469;-83
2023/09/15 01:57:06;;;;;;;0.00;0.00;;;;;;;;;;5018530;28;20060;-85
2023/09/15 01:59:32;;;;;;;0.00;0.00;;;;;;;;;;5018070;28;20029;-84
2023/09/15 02:01:58;;;;;;;0.00;0.00;;;;;;;;;;4985595;28;20122;-84
2023/09/15 02:04:23;;;;;;;0.00;0.00;;;;;;;;;;5035602;28;20101;-86
2023/09/15 02:06:49;;;;;;;0.00;0.00;;;;;;;;;;5017918;28;20037;-84
2023/09/15 02:09:15;;;;;;;0.00;0.00;;;;;;;;;;5001731;28;20037;-84
2023/09/15 02:11:40;;;;;;;0.00;0.00;;;;;;;;;;5035920;28;20056;-85
2023/09/15 02:14:06;;;;;;;0.00;0.00;;;;;;;;;;5017829;28;20121;-85
2023/09/15 02:16:31;;;;;;;0.00;0.00;;;;;;;;;;5018095;28;20493;-85
2023/09/15 02:18:57;;;;;;;0.00;0.00;;;;;;;;;;5017982;28;20033;-84
2023/09/15 02:21:22;;;;;;;0.00;0.00;;;;;;;;;;5018053;28;20113;-86
2023/09/15 02:23:48;;;;;;;0.00;0.00;;;;;;;;;;5001950;28;20029;-85
2023/09/15 02:26:13;;;;;;;0.00;0.00;;;;;;;;;;5035389;28;20030;-83
2023/09/15 02:28:39;;;;;;;0.00;0.00;;;;;;;;;;5017439;28;20052;-85
2023/09/15 02:31:04;;;;;;;0.00;0.00;;;;;;;;;;5017474;28;20022;-84
2023/09/15 02:33:30;;;;;;;0.00;0.00;;;;;;;;;;5017461;28;20040;-84
2023/09/15 02:35:55;;;;;;;0.00;0.00;;;;;;;;;;5035298;28;20059;-86
2023/09/15 02:38:21;;;;;;;0.00;0.00;;;;;;;;;;5035266;28;20022;-83
2023/09/15 02:40:46;;;;;;;0.00;0.00;;;;;;;;;;5017857;28;20021;-85
2023/09/15 02:43:11;;;;;;;0.00;0.00;;;;;;;;;;5025344;28;20451;-84
2023/09/15 02:45:37;;;;;;;0.00;0.00;;;;;;;;;;5018049;28;20064;-84
2023/09/15 02:48:03;;;;;;;0.00;0.00;;;;;;;;;;5016721;28;20045;-84
2023/09/15 02:50:29;;;;;;;0.00;0.00;;;;;;;;;;5001067;28;20374;-83
2023/09/15 02:52:54;;;;;;;0.00;0.00;;;;;;;;;;5001242;28;20112;-84
2023/09/15 02:55:19;;;;;;;0.00;0.00;;;;;;;;;;5000996;28;20099;-84
2023/09/15 02:57:45;;;;;;;0.00;0.00;;;;;;;;;;5034811;28;20116;-84
2023/09/15 03:00:13;;;;;;;0.00;0.00;;;;;;;;;;5034811;28;20119;-83
2023/09/15 03:02:40;;;;;;;0.00;0.00;;;;;;;;;;5034988;28;20026;-85
2023/09/15 03:05:07;;;;;;;0.00;0.00;;;;;;;;;;5017150;28;20033;-83
2023/09/15 03:07:33;;;;;;;0.00;0.00;;;;;;;;;;5033819;28;20431;-84
2023/09/15 03:09:58;;;;;;;0.00;0.00;;;;;;;;;;5000693;28;20033;-84
2023/09/15 03:12:23;;;;;;;0.00;0.00;;;;;;;;;;5017036;28;20032;-84
2023/09/15 03:14:52;;;;;;;0.00;0.00;;;;;;;;;;5034527;28;20084;-84
2023/09/15 03:17:18;;;;;;;0.00;0.00;;;;;;;;;;5016692;28;20033;-85
2023/09/15 03:19:43;;;;;;;0.00;0.00;;;;;;;;;;5033432;28;20036;-84
2023/09/15 03:22:10;;;;;;;0.00;0.00;;;;;;;;;;5038946;28;20025;-84
2023/09/15 03:24:36;;;;;;;0.00;0.00;;;;;;;;;;5016290;28;20029;-84
2023/09/15 03:27:02;;;;;;;0.00;0.00;;;;;;;;;;5034271;28;20037;-85
2023/09/15 03:29:27;;;;;;;0.00;0.00;;;;;;;;;;5016594;28;20025;-85
2023/09/15 03:31:54;;;;;;;0.00;0.00;;;;;;;;;;5016720;28;20125;-86
2023/09/15 03:34:19;;;;;;;0.00;0.00;;;;;;;;;;5036542;28;20048;-84
2023/09/15 03:36:45;;;;;;;0.00;0.00;;;;;;;;;;5019939;28;20041;-85
2023/09/15 03:39:11;;;;;;;0.00;0.00;;;;;;;;;;5036482;28;20029;-84
2023/09/15 03:41:37;;;;;;;0.00;0.00;;;;;;;;;;5022587;28;20036;-83
2023/09/15 03:44:04;;;;;;;0.00;0.00;;;;;;;;;;5024011;28;20041;-83
2023/09/15 03:46:30;;;;;;;0.00;0.00;;;;;;;;;;5041015;28;20211;-85
2023/09/15 03:48:55;;;;;;;0.00;0.00;;;;;;;;;;5022371;28;20041;-85
2023/09/15 03:51:22;;;;;;;0.00;0.00;;;;;;;;;;5023510;28;20151;-85
2023/09/15 03:53:47;;;;;;;0.00;0.00;;;;;;;;;;5017875;28;20517;-84
2023/09/15 03:56:13;;;;;;;0.00;0.00;;;;;;;;;;5003178;28;20034;-84
2023/09/15 03:58:38;;;;;;;0.00;0.00;;;;;;;;;;5000199;28;20442;-84
2023/09/15 04:01:06;;;;;;;0.00;0.00;;;;;;;;;;5020489;28;20030;-83
2023/09/15 04:03:33;;;;;;;0.00;0.00;;;;;;;;;;5017124;28;20526;-84
2023/09/15 04:05:58;;;;;;;0.00;0.00;;;;;;;;;;5030824;28;20033;-84
2023/09/15 04:08:24;;;;;;;0.00;0.00;;;;;;;;;;5014171;28;20355;-84
2023/09/15 04:10:49;;;;;;;0.00;0.00;;;;;;;;;;5030755;28;20034;-84
2023/09/15 04:13:15;;;;;;;0.00;0.00;;;;;;;;;;5015286;28;20025;-85
2023/09/15 04:15:40;;;;;;;0.00;0.00;;;;;;;;;;5014504;28;20037;-84
2023/09/15 04:18:10;;;;;;;0.00;0.00;;;;;;;;;;5015047;28;20041;-84
2023/09/15 04:20:37;;;;;;;0.00;0.00;;;;;;;;;;5014006;28;20103;-84
2023/09/15 04:23:03;;;;;;;0.00;0.00;;;;;;;;;;5015018;28;20057;-85
2023/09/15 04:25:28;;;;;;;0.00;0.00;;;;;;;;;;5015394;28;20042;-85
2023/09/15 04:27:54;;;;;;;0.00;0.00;;;;;;;;;;4998103;28;20491;-85
2023/09/15 04:30:20;;;;;;;0.20;0.00;;;;;;;;;;5022887;28;20089;-85
2023/09/15 04:32:45;;;;;;;0.10;0.00;;;;;;;;;;5013998;28;20021;-85
2023/09/15 04:35:12;;;;;;;0.00;0.00;;;;;;;;;;5040032;28;20041;-84
2023/09/15 04:37:38;;;;;;;0.00;0.00;;;;;;;;;;5032274;28;20097;-86
2023/09/15 04:40:06;;;;;;;0.00;0.00;;;;;;;;;;4993731;28;20064;-84
2023/09/15 04:42:31;;;;;;;0.00;0.00;;;;;;;;;;5017644;28;20030;-85
2023/09/15 04:44:57;;;;;;;0.00;0.00;;;;;;;;;;5016475;28;20055;-85
2023/09/15 04:47:36;;;;;;;0.00;0.00;;;;;;;;;;5016015;28;20042;-83
2023/09/15 04:50:01;;;;;;;0.00;0.00;;;;;;;;;;5017669;28;20034;-83
2023/09/15 04:52:27;;;;;;;0.00;0.00;;;;;;;;;;4999989;28;20116;-84
2023/09/15 04:54:53;;;;;;;0.00;0.00;;;;;;;;;;5017406;28;20064;-83
2023/09/15 04:57:22;;;;;;;0.00;0.00;;;;;;;;;;5016575;28;20033;-83
2023/09/15 04:59:48;;;;;;;0.00;0.00;;;;;;;;;;5015892;28;20034;-84
2023/09/15 05:02:14;;;;;;;0.00;0.00;;;;;;;;;;5017106;28;20116;-84
2023/09/15 05:04:40;;;;;;;0.00;0.00;;;;;;;;;;5017522;28;20121;-87
2023/09/15 05:07:05;;;;;;;0.00;0.00;;;;;;;;;;5017115;28;20125;-84
2023/09/15 05:09:31;;;;;;;0.00;0.00;;;;;;;;;;5016236;28;20042;-85
2023/09/15 05:11:56;;;;;;;0.00;0.00;;;;;;;;;;5017275;28;20104;-85
2023/09/15 05:14:22;;;;;;;0.00;0.00;;;;;;;;;;5017214;28;20308;-85
2023/09/15 05:16:48;;;;;;;0.00;0.00;;;;;;;;;;5020854;28;20101;-83
2023/09/15 05:19:17;;;;;;;0.00;0.00;;;;;;;;;;5038064;28;20030;-83
2023/09/15 05:21:42;;;;;;;0.00;0.00;;;;;;;;;;5000642;28;20029;-83
2023/09/15 05:24:08;;;;;;;0.00;0.00;;;;;;;;;;5017301;28;20029;-84
2023/09/15 05:26:34;;;;;;;0.00;0.00;;;;;;;;;;5016844;28;20034;-83
2023/09/15 05:29:02;;;;;;;0.00;0.00;;;;;;;;;;5017414;28;20379;-83
2023/09/15 05:31:27;;;;;;;0.00;0.00;;;;;;;;;;5017658;28;20490;-83
2023/09/15 05:33:57;;;;;;;0.00;0.00;;;;;;;;;;5017697;28;20034;-83
2023/09/15 05:36:23;;;;;;;0.00;0.00;;;;;;;;;;5018039;28;20493;-81
2023/09/15 05:38:49;;;;;;;0.00;0.00;;;;;;;;;;5016723;28;20092;-83
2023/09/15 05:41:14;;;;;;;0.00;0.00;;;;;;;;;;5015327;28;20084;-82
2023/09/15 05:43:40;;;;;;;0.00;0.00;;;;;;;;;;5017043;28;20095;-82
2023/09/15 05:46:05;;;;;;;0.00;0.00;;;;;;;;;;5016744;28;20033;-82
2023/09/15 05:48:31;;;;;;;0.00;0.00;;;;;;;;;;5035951;28;20045;-82
2023/09/15 05:50:56;;;;;;;0.00;0.00;;;;;;;;;;5035622;28;20044;-82
2023/09/15 05:53:22;;;;;;;0.00;0.00;;;;;;;;;;5036576;28;20426;-82
2023/09/15 05:55:47;;;;;;;0.00;0.00;;;;;;;;;;5034963;28;20392;-81
2023/09/15 05:58:13;;;;;;;0.00;0.00;;;;;;;;;;5033329;28;20029;-81
2023/09/15 06:00:42;;;;;;;0.00;0.00;;;;;;;;;;5034544;28;20124;-82
2023/09/15 06:03:08;;;;;;;0.00;0.00;;;;;;;;;;5034831;28;20453;-82
2023/09/15 06:05:34;;;;;;;0.00;0.00;;;;;;;;;;5034551;28;20037;-83
2023/09/15 06:07:59;;;;;;;0.00;0.00;;;;;;;;;;5033825;28;20033;-84
2023/09/15 06:10:25;;;;;;;0.00;0.00;;;;;;;;;;5036037;28;20025;-82
2023/09/15 06:12:51;;;;;;;0.00;0.00;;;;;;;;;;5036669;28;20108;-83
2023/09/15 06:15:18;;;;;;;0.00;0.00;;;;;;;;;;5041803;28;20087;-81
2023/09/15 06:17:43;;;;;;;0.10;0.00;;;;;;;;;;5035731;28;20030;-83
2023/09/15 06:20:09;;;;;;;0.00;0.00;;;;;;;;;;5035598;28;20099;-84
2023/09/15 06:22:34;;;;;;;0.00;0.00;;;;;;;;;;5016963;28;20031;-83
2023/09/15 06:25:00;;;;;;;0.00;0.00;;;;;;;;;;5034777;28;20044;-82
2023/09/15 06:27:26;;;;;;;0.00;0.00;;;;;;;;;;5036825;28;20044;-84
2023/09/15 06:29:53;;;;;;;0.00;0.00;;;;;;;;;;5037647;28;20032;-82
2023/09/15 06:32:19;;;;;;;0.00;0.00;;;;;;;;;;5025202;28;20037;-82
2023/09/15 06:34:44;;;;;;;0.00;0.00;;;;;;;;;;5041313;28;20029;-82
2023/09/15 06:37:10;;;;;;;0.00;0.00;;;;;;;;;;5037952;28;20128;-83
2023/09/15 06:39:36;;;;;;;0.00;0.00;;;;;;;;;;5022631;28;20104;-82
2023/09/15 06:42:08;;;;;;;0.00;0.00;;;;;;;;;;5043452;28;20037;-81
2023/09/15 06:44:35;;;;;;;0.00;0.00;;;;;;;;;;5024447;28;20033;-82
2023/09/15 06:47:04;;;;;;;0.00;0.00;;;;;;;;;;5026223;28;20053;-86
2023/09/15 06:49:32;;;;;;;0.00;0.00;;;;;;;;;;5044244;28;20339;-83
2023/09/15 06:51:58;;;;;;;0.05;0.05;;;;;;;;;;5008138;28;20059;-80
2023/09/15 06:54:23;;;;;;;0.00;0.00;;;;;;;;;;5023373;28;20057;-83
2023/09/15 06:57:24;;;;;;;0.00;0.00;;;;;;;;;;5044988;28;20037;-83
2023/09/15 07:02:29;;;;;;;0.00;0.00;;;;;;;;;;5067444;22;20057;-81
2023/09/15 07:04:54;;;;;;;0.00;0.00;;;;;;;;;;5057598;28;20072;-80
2023/09/15 07:07:23;;;;;;;0.00;0.00;;;;;;;;;;5058450;28;20041;-81
2023/09/15 07:09:50;;;;;;;0.00;0.00;;;;;;;;;;5040545;28;20025;-82
2023/09/15 07:12:19;;;;;;;0.00;0.00;;;;;;;;;;5039032;28;20466;-82
2023/09/15 07:14:52;;;;;;;0.00;0.00;;;;;;;;;;5027173;28;20092;-82
2023/09/15 07:17:17;;;;;;;0.00;0.00;;;;;;;;;;5059846;28;20099;-82
2023/09/15 07:19:46;;;;;;;0.00;0.00;;;;;;;;;;5045609;28;20462;-82
2023/09/15 07:22:12;;;;;;;0.00;0.00;;;;;;;;;;5004384;28;20029;-83
2023/09/15 07:24:43;;;;;;;0.00;0.00;;;;;;;;;;5054400;28;20026;-83
2023/09/15 07:27:09;;;;;;;0.00;0.00;;;;;;;;;;5021529;28;20052;-83
2023/09/15 07:29:35;;;;;;;0.00;0.00;;;;;;;;;;5024310;28;20029;-80
2023/09/15 07:32:04;;;;;;;0.00;0.00;;;;;;;;;;5039132;28;20033;-82
2023/09/15 07:34:44;;;;;;;0.00;0.00;;;;;;;;;;5042814;28;20045;-83
2023/09/15 07:37:10;;;;;;;0.00;0.00;;;;;;;;;;5025704;28;20186;-82
2023/09/15 07:39:36;;;;;;;0.00;0.00;;;;;;;;;;5021055;28;20033;-81
2023/09/15 07:42:05;;;;;;;0.00;0.00;;;;;;;;;;5038939;28;20101;-83
2023/09/15 07:44:31;;;;;;;0.00;0.00;;;;;;;;;;5006097;28;20030;-82
2023/09/15 07:46:58;;;;;;;0.00;0.00;;;;;;;;;;5020929;28;20195;-83
2023/09/15 07:49:29;;;;;;;0.00;0.00;;;;;;;;;;5010239;28;20128;-84
2023/09/15 07:51:55;;;;;;;0.00;0.00;;;;;;;;;;5023859;28;20029;-81
2023/09/15 07:54:24;;;;;;;0.00;0.00;;;;;;;;;;5023911;28;20095;-82
2023/09/15 07:56:50;;;;;;;0.00;0.00;;;;;;;;;;5038671;28;20366;-81
2023/09/15 07:59:16;;;;;;;0.00;0.00;;;;;;;;;;5060751;28;20040;-81
2023/09/15 08:01:42;;;;;;;0.00;0.00;;;;;;;;;;5025551;28;20113;-82
2023/09/15 08:04:17;;;;;;;0.00;0.00;;;;;;;;;;5035305;28;20147;-82
2023/09/15 08:06:42;;;;;;;0.00;0.00;;;;;;;;;;5030939;28;20473;-79
2023/09/15 08:09:10;;;;;;;0.00;0.00;;;;;;;;;;5038638;28;20033;-81
2023/09/15 08:11:38;;;;;;;0.00;0.00;;;;;;;;;;5020884;28;20033;-77
2023/09/15 08:14:11;;;;;;;0.00;0.00;;;;;;;;;;5036264;28;20029;-85
2023/09/15 08:16:41;;;;;;;0.00;0.00;;;;;;;;;;5022154;28;20064;-79
2023/09/15 08:19:10;;;;;;;0.00;0.00;;;;;;;;;;5004468;28;20069;-81
2023/09/15 08:22:00;;;;;;;0.00;0.00;;;;;;;;;;5013629;28;20037;-79
2023/09/15 08:24:26;;;;;;;0.00;0.00;;;;;;;;;;5034417;28;20528;-81
2023/09/15 08:26:51;;;;;;;0.00;0.00;;;;;;;;;;5020121;28;20034;-79
2023/09/15 08:29:17;;;;;;;0.00;0.00;;;;;;;;;;5046999;28;20109;-80
2023/09/15 08:31:42;;;;;;;0.00;0.00;;;;;;;;;;5037979;28;20341;-81
2023/09/15 08:34:08;;;;;;;0.00;0.00;;;;;;;;;;5020762;28;20378;-81
2023/09/15 08:36:33;;;;;;;0.00;0.00;;;;;;;;;;5052637;28;20025;-80
2023/09/15 08:38:59;;;;;;;0.00;0.00;;;;;;;;;;5019522;28;20528;-81
2023/09/15 08:41:29;;;;;;;0.00;0.00;;;;;;;;;;5019682;28;20036;-80
2023/09/15 08:43:55;;;;;;;0.00;0.00;;;;;;;;;;5020224;28;20025;-80
2023/09/15 08:46:21;;;;;;;0.00;0.00;;;;;;;;;;5036323;28;20042;-80
2023/09/15 08:48:49;;;;;;;0.00;0.00;;;;;;;;;;5018486;28;20026;-80
2023/09/15 08:51:14;;;;;;;0.00;0.00;;;;;;;;;;5019629;28;20040;-79
2023/09/15 08:53:41;;;;;;;0.00;0.00;;;;;;;;;;5019649;28;20029;-81
2023/09/15 08:56:06;;;;;;;0.00;0.00;;;;;;;;;;5020115;28;20538;-79
2023/09/15 08:58:33;;;;;;;0.00;0.00;;;;;;;;;;5001328;28;20128;-79
2023/09/15 09:00:58;;;;;;;0.00;0.00;;;;;;;;;;5033683;28;20045;-79
2023/09/15 09:03:23;;;;;;;0.00;0.00;;;;;;;;;;5035793;28;20076;-78
2023/09/15 09:05:49;;;;;;;0.00;0.00;;;;;;;;;;5035397;28;20108;-80
2023/09/15 09:08:15;;;;;;;0.00;0.00;;;;;;;;;;5019625;28;20025;-82
2023/09/15 09:10:41;;;;;;;0.00;0.00;;;;;;;;;;5035817;28;20386;-80
2023/09/15 09:13:06;;;;;;;0.00;0.00;;;;;;;;;;5020067;28;20049;-80
2023/09/15 09:15:32;;;;;;;0.00;0.00;;;;;;;;;;5037597;28;20030;-82
2023/09/15 09:17:58;;;;;;;0.00;0.00;;;;;;;;;;5054212;28;20018;-81
2023/09/15 09:20:24;;;;;;;0.00;0.00;;;;;;;;;;5038090;28;20082;-81
2023/09/15 09:22:50;;;;;;;0.00;0.00;;;;;;;;;;5020265;28;20032;-80
2023/09/15 09:25:25;;;;;;;0.00;0.00;;;;;;;;;;5055319;28;20412;-81
2023/09/15 09:27:50;;;;;;;0.00;0.00;;;;;;;;;;5039053;28;20030;-81
2023/09/15 09:30:16;;;;;;;0.00;0.00;;;;;;;;;;5038621;28;20223;-82
2023/09/15 09:32:41;;;;;;;0.00;0.00;;;;;;;;;;5055925;28;20025;-81
2023/09/15 09:35:07;;;;;;;0.00;0.00;;;;;;;;;;5039121;28;20025;-81
2023/09/15 09:37:32;;;;;;;0.00;0.00;;;;;;;;;;5037994;28;20029;-81
2023/09/15 09:39:58;;;;;;;0.00;0.00;;;;;;;;;;5054681;28;20104;-81
2023/09/15 09:42:24;;;;;;;0.00;0.00;;;;;;;;;;5037734;28;20027;-81
2023/09/15 09:44:51;;;;;;;0.00;0.00;;;;;;;;;;5022235;28;20115;-81
2023/09/15 09:47:18;;;;;;;0.00;0.00;;;;;;;;;;5039187;28;20477;-80
2023/09/15 09:50:02;;;;;;;0.00;0.00;;;;;;;;;;5040362;28;20025;-81
2023/09/15 09:52:28;;;;;;;0.00;0.00;;;;;;;;;;5054488;28;20026;-82
2023/09/15 09:54:53;;;;;;;0.00;0.00;;;;;;;;;;5022848;28;20025;-81
2023/09/15 09:57:19;;;;;;;0.00;0.00;;;;;;;;;;5041370;28;20030;-82
2023/09/15 09:59:45;;;;;;;0.00;0.00;;;;;;;;;;5022266;28;20021;-81
2023/09/15 10:02:11;;;;;;;0.00;0.00;;;;;;;;;;5004676;28;20040;-80
2023/09/15 10:04:37;;;;;;;0.00;0.00;;;;;;;;;;5005892;28;20061;-80
2023/09/15 10:07:04;;;;;;;0.00;0.00;;;;;;;;;;5021146;28;20026;-80
2023/09/15 10:09:31;;;;;;;0.00;0.00;;;;;;;;;;5020607;28;20375;-80
2023/09/15 10:11:56;;;;;;;0.00;0.00;;;;;;;;;;5037827;28;20034;-80
2023/09/15 10:14:22;;;;;;;0.00;0.00;;;;;;;;;;4988989;28;20044;-79
2023/09/15 10:16:47;;;;;;;0.00;0.00;;;;;;;;;;5020439;28;20037;-81
2023/09/15 10:19:13;;;;;;;0.00;0.00;;;;;;;;;;5002400;28;20063;-81
2023/09/15 10:21:39;;;;;;;0.00;0.00;;;;;;;;;;4986455;28;20029;-84
2023/09/15 10:24:08;;;;;;;0.00;0.00;;;;;;;;;;5022041;28;20033;-82
2023/09/15 10:26:34;;;;;;;0.00;0.00;;;;;;;;;;5004205;28;20186;-81
2023/09/15 10:29:01;;;;;;;0.00;0.00;;;;;;;;;;4989520;28;20099;-81
2023/09/15 10:31:29;;;;;;;0.00;0.00;;;;;;;;;;5005584;28;20064;-81
2023/09/15 10:33:54;;;;;;;0.00;0.00;;;;;;;;;;4989502;28;20112;-82
2023/09/15 10:36:21;;;;;;;0.00;0.00;;;;;;;;;;4989250;28;20423;-81
2023/09/15 10:38:48;;;;;;;0.00;0.00;;;;;;;;;;4989550;28;20061;-82
2023/09/15 10:41:26;;;;;;;0.00;0.00;;;;;;;;;;5004661;28;20037;-82
2023/09/15 10:43:52;;;;;;;0.00;0.00;;;;;;;;;;5005050;28;20041;-82
2023/09/15 10:46:18;;;;;;;0.00;0.00;;;;;;;;;;5005249;28;20402;-82
2023/09/15 10:48:46;;;;;;;0.00;0.00;;;;;;;;;;5006159;28;20076;-82
2023/09/15 10:51:13;;;;;;;0.00;0.00;;;;;;;;;;4989376;28;20021;-81
2023/09/15 10:53:44;;;;;;;0.00;0.00;;;;;;;;;;5006928;28;20370;-81
2023/09/15 10:56:09;;;;;;;0.00;0.00;;;;;;;;;;5007320;28;20044;-82
2023/09/15 10:58:36;;;;;;;0.00;0.00;;;;;;;;;;5001634;28;20041;-82
2023/09/15 11:01:02;;;;;;;0.00;0.00;;;;;;;;;;5000618;28;20038;-83
2023/09/15 11:03:27;;;;;;;0.00;0.00;;;;;;;;;;5017104;28;20363;-82
2023/09/15 11:05:54;;;;;;;0.00;0.00;;;;;;;;;;5000541;28;20048;-82
2023/09/15 11:08:20;;;;;;;0.00;0.00;;;;;;;;;;5000900;28;20681;-80
2023/09/15 11:10:46;;;;;;;0.00;0.00;;;;;;;;;;4985019;28;20079;-83
2023/09/15 11:13:12;;;;;;;0.00;0.00;;;;;;;;;;4984416;28;20029;-80
2023/09/15 11:15:37;;;;;;;0.00;0.00;;;;;;;;;;5000490;28;20033;-81
2023/09/15 11:18:04;;;;;;;0.00;0.00;;;;;;;;;;5016735;28;20021;-81
2023/09/15 11:20:29;;;;;;;0.00;0.00;;;;;;;;;;5000530;28;20033;-81
2023/09/15 11:22:58;;;;;;;0.00;0.00;;;;;;;;;;5000353;28;20028;-81
2023/09/15 11:25:24;;;;;;;0.00;0.00;;;;;;;;;;5000586;28;20112;-80
2023/09/15 11:27:50;;;;;;;0.00;0.00;;;;;;;;;;5017492;28;20519;-80
2023/09/15 11:30:16;;;;;;;0.00;0.00;;;;;;;;;;5001504;28;20033;-81
2023/09/15 11:32:42;;;;;;;0.00;0.00;;;;;;;;;;5000815;28;20075;-82
2023/09/15 11:35:11;;;;;;;0.00;0.00;;;;;;;;;;5000644;28;20397;-81
2023/09/15 11:37:38;;;;;;;0.00;0.00;;;;;;;;;;5001165;28;20034;-81
2023/09/15 11:40:03;;;;;;;0.00;0.00;;;;;;;;;;5000038;28;20034;-80
2023/09/15 11:42:29;;;;;;;0.00;0.00;;;;;;;;;;5016216;28;20052;-82
2023/09/15 11:44:55;;;;;;;0.00;0.00;;;;;;;;;;5015389;28;20064;-80
2023/09/15 11:47:20;;;;;;;0.00;0.00;;;;;;;;;;5016230;28;20475;-81
2023/09/15 11:49:46;;;;;;;0.00;0.00;;;;;;;;;;4983410;28;20124;-80
2023/09/15 11:52:11;;;;;;;0.00;0.00;;;;;;;;;;5016685;28;20029;-81
2023/09/15 11:54:37;;;;;;;0.00;0.00;;;;;;;;;;4999788;28;20033;-82
2023/09/15 11:57:02;;;;;;;0.00;0.00;;;;;;;;;;4983969;28;20038;-81
2023/09/15 11:59:28;;;;;;;0.00;0.00;;;;;;;;;;4999981;28;20116;-83
2023/09/15 12:02:01;;;;;;;0.00;0.00;;;;;;;;;;4999616;28;20471;-82
2023/09/15 12:04:28;;;;;;;0.00;0.00;;;;;;;;;;5017033;28;20438;-83
2023/09/15 12:06:54;;;;;;;0.00;0.00;;;;;;;;;;5016225;28;20037;-82
2023/09/15 12:09:20;;;;;;;0.00;0.00;;;;;;;;;;4983786;28;20126;-82
2023/09/15 12:11:45;;;;;;;0.00;0.00;;;;;;;;;;5016112;28;20104;-81
2023/09/15 12:14:14;;;;;;;0.00;0.00;;;;;;;;;;4999599;28;20029;-79
2023/09/15 12:16:43;;;;;;;0.00;0.00;;;;;;;;;;4999720;28;20032;-82
2023/09/15 12:19:10;;;;;;;0.00;0.00;;;;;;;;;;4999745;28;20045;-82
2023/09/15 12:21:35;;;;;;;0.00;0.00;;;;;;;;;;5016407;28;20112;-83
2023/09/15 12:24:10;;;;;;;0.00;0.00;;;;;;;;;;4983300;28;20124;-81
2023/09/15 12:26:41;;;;;;;0.00;0.00;;;;;;;;;;5016003;28;20033;-82
2023/09/15 12:29:06;;;;;;;0.00;0.00;;;;;;;;;;5000450;28;20344;-80
2023/09/15 12:31:41;;;;;;;0.00;0.00;;;;;;;;;;4984132;28;20131;-82
2023/09/15 12:34:07;;;;;;;0.00;0.00;;;;;;;;;;5000552;28;20132;-81
2023/09/15 12:36:33;;;;;;;0.00;0.00;;;;;;;;;;4983858;28;20033;-80
2023/09/15 12:38:58;;;;;;;0.00;0.00;;;;;;;;;;4999882;28;20025;-81
2023/09/15 12:41:24;;;;;;;0.00;0.00;;;;;;;;;;5015864;28;20049;-82
2023/09/15 12:43:49;;;;;;;0.00;0.00;;;;;;;;;;4999230;28;20356;-83
2023/09/15 12:46:14;;;;;;;0.00;0.00;;;;;;;;;;5015790;28;20497;-82
2023/09/15 12:48:40;;;;;;;0.00;0.00;;;;;;;;;;4999370;28;20076;-83
2023/09/15 12:51:06;;;;;;;0.00;0.00;;;;;;;;;;4999538;28;20049;-83
2023/09/15 12:53:31;;;;;;;0.00;0.00;;;;;;;;;;4983067;28;20029;-83
2023/09/15 12:56:00;;;;;;;0.00;0.00;;;;;;;;;;5016252;28;20367;-82
2023/09/15 12:58:26;;;;;;;0.00;0.00;;;;;;;;;;5019379;28;20032;-83
2023/09/15 13:00:51;;;;;;;0.00;0.00;;;;;;;;;;5002565;28;20045;-82
2023/09/15 13:03:18;;;;;;;0.00;0.00;;;;;;;;;;5019258;28;20029;-80
2023/09/15 13:05:43;;;;;;;0.00;0.00;;;;;;;;;;5019106;28;20356;-81
2023/09/15 13:08:08;;;;;;;0.00;0.00;;;;;;;;;;4986741;28;20040;-85
2023/09/15 13:10:34;;;;;;;0.00;0.00;;;;;;;;;;5002798;28;20060;-82
2023/09/15 13:12:59;;;;;;;0.00;0.00;;;;;;;;;;5018736;28;20124;-81
2023/09/15 13:15:25;;;;;;;0.00;0.00;;;;;;;;;;5036790;28;20040;-81
2023/09/15 13:17:50;;;;;;;0.00;0.00;;;;;;;;;;5002691;28;20404;-82
2023/09/15 13:20:16;;;;;;;0.00;0.00;;;;;;;;;;4986483;28;20435;-80
2023/09/15 13:22:41;;;;;;;0.00;0.00;;;;;;;;;;5018396;28;20072;-82
2023/09/15 13:25:07;;;;;;;0.00;0.00;;;;;;;;;;5018447;28;20439;-84
2023/09/15 13:27:33;;;;;;;0.00;0.00;;;;;;;;;;4986540;28;20064;-83
2023/09/15 13:29:59;;;;;;;0.00;0.00;;;;;;;;;;5036265;28;20111;-83
2023/09/15 13:32:27;;;;;;;1.48;0.00;;;;;;;;;;5002416;28;20760;-83
2023/09/15 13:34:53;;;;;;;0.00;0.00;;;;;;;;;;4986010;28;20059;-84
2023/09/15 13:37:20;;;;;;;0.00;0.00;;;;;;;;;;5018692;28;20033;-82
2023/09/15 13:39:45;;;;;;;0.00;0.00;;;;;;;;;;5018508;28;20465;-83
2023/09/15 13:42:11;;;;;;;0.00;0.00;;;;;;;;;;5018602;28;20025;-80
2023/09/15 13:44:37;;;;;;;0.00;0.00;;;;;;;;;;5036393;28;20510;-81
2023/09/15 13:47:04;;;;;;;0.00;0.00;;;;;;;;;;5036248;28;20025;-82
2023/09/15 13:49:29;;;;;;;0.00;0.00;;;;;;;;;;5018523;28;20429;-81
2023/09/15 13:51:54;;;;;;;0.00;0.00;;;;;;;;;;5035875;28;20021;-81
2023/09/15 13:54:20;;;;;;;0.00;0.00;;;;;;;;;;5035683;28;20033;-81
2023/09/15 13:56:45;;;;;;;0.00;0.00;;;;;;;;;;5002091;28;20032;-80
2023/09/15 13:59:11;;;;;;;0.00;0.00;;;;;;;;;;5035766;28;20121;-81
2023/09/15 14:01:39;;;;;;;0.00;0.00;;;;;;;;;;5035657;28;20083;-80
2023/09/15 14:04:05;;;;;;;0.00;0.00;;;;;;;;;;5018253;28;20021;-81
2023/09/15 14:06:31;;;;;;;0.00;0.00;;;;;;;;;;5017737;28;20060;-80
2023/09/15 14:08:56;;;;;;;0.00;0.00;;;;;;;;;;5034965;28;20033;-81
2023/09/15 14:11:22;;;;;;;0.00;0.00;;;;;;;;;;5035334;28;20033;-81
2023/09/15 14:13:47;;;;;;;0.00;0.00;;;;;;;;;;5035426;28;20497;-80
2023/09/15 14:16:13;;;;;;;0.00;0.00;;;;;;;;;;5001831;28;20056;-82
2023/09/15 14:18:38;;;;;;;0.00;0.00;;;;;;;;;;5001460;28;20127;-81
2023/09/15 14:21:04;;;;;;;0.00;0.00;;;;;;;;;;4985205;28;20339;-82
2023/09/15 14:23:30;;;;;;;0.00;0.00;;;;;;;;;;5017353;28;20033;-82
2023/09/15 14:25:55;;;;;;;0.00;0.00;;;;;;;;;;5017454;28;20039;-82
2023/09/15 14:28:20;;;;;;;0.00;0.00;;;;;;;;;;5017457;28;20148;-83
2023/09/15 14:30:50;;;;;;;0.00;0.00;;;;;;;;;;4985024;28;20099;-82
2023/09/15 14:33:15;;;;;;;0.00;0.00;;;;;;;;;;5001369;28;20116;-82
2023/09/15 14:35:40;;;;;;;0.00;0.00;;;;;;;;;;5001340;28;20128;-81
2023/09/15 14:38:06;;;;;;;0.00;0.00;;;;;;;;;;5017052;28;20061;-81
2023/09/15 14:40:32;;;;;;;0.00;0.00;;;;;;;;;;4984926;28;20059;-80
2023/09/15 14:42:57;;;;;;;0.00;0.00;;;;;;;;;;4985166;28;20083;-81